Time;durP1;ratioP1;P1;durP2;ratioP2;P2;SDS_P1;SDS_P2;PMS_P1;PMS_P2;Temp;Humidity;BMP_temperature;BMP_pressure;BME280_temperature;BME280_humidity;BME280_pressure;Samples;Min_cycle;Max_cycle;Signal;HPM_P1;HPM_P2
2022/09/05 00:00:19;;;;;;;5.63;4.70;;;21.70;99.90;;;;;;5061445;28;20233;-73
2022/09/05 00:03:27;;;;;;;5.57;4.73;;;21.70;99.90;;;;;;5103394;28;20178;-73
2022/09/05 00:06:06;;;;;;;5.75;4.57;;;21.70;99.90;;;;;;5087917;28;20704;-74
2022/09/05 00:08:54;;;;;;;5.00;4.50;;;21.60;99.90;;;;;;5084579;28;20181;-74
2022/09/05 00:11:54;;;;;;;8.75;4.70;;;21.60;99.90;;;;;;5073435;28;20271;-73
2022/09/05 00:15:07;;;;;;;5.20;4.70;;;21.70;99.90;;;;;;5090600;28;20224;-73
2022/09/05 00:18:24;;;;;;;5.63;4.33;;;21.70;99.90;;;;;;5102528;28;20252;-73
2022/09/05 00:21:12;;;;;;;5.30;4.53;;;21.70;99.90;;;;;;5100210;28;20202;-73
2022/09/05 00:23:57;;;;;;;6.63;4.60;;;21.70;99.90;;;;;;5089381;28;20186;-73
2022/09/05 00:26:34;;;;;;;4.93;4.53;;;21.70;99.90;;;;;;5090529;28;20205;-71
2022/09/05 00:29:57;;;;;;;7.93;5.18;;;21.80;99.90;;;;;;5106450;28;20197;-73
2022/09/05 00:33:04;;;;;;;5.72;4.65;;;21.80;99.90;;;;;;5104043;27;20248;-74
2022/09/05 00:35:44;;;;;;;6.45;5.28;;;21.80;99.90;;;;;;5088671;28;20506;-73
2022/09/05 00:38:20;;;;;;;6.65;5.85;;;21.80;99.90;;;;;;5089565;28;20182;-73
2022/09/05 00:41:01;;;;;;;9.27;5.40;;;21.80;99.90;;;;;;5089931;28;20210;-74
2022/09/05 00:43:36;;;;;;;9.30;5.60;;;21.80;99.90;;;;;;5091726;28;20716;-74
2022/09/05 00:46:23;;;;;;;8.40;5.57;;;21.70;99.90;;;;;;5090656;28;20178;-73
2022/09/05 00:49:41;;;;;;;8.65;6.13;;;21.70;99.90;;;;;;5090913;28;20827;-73
2022/09/05 00:52:28;;;;;;;8.30;6.35;;;21.70;99.90;;;;;;5084972;28;20231;-73
2022/09/05 00:55:57;;;;;;;8.52;6.40;;;21.80;99.90;;;;;;5124602;27;20186;-74
2022/09/05 00:59:11;;;;;;;10.55;6.22;;;21.80;99.90;;;;;;5082079;28;20736;-74
2022/09/05 01:01:57;;;;;;;7.05;5.70;;;21.80;99.90;;;;;;5106477;28;20535;-73
2022/09/05 01:05:19;;;;;;;8.02;5.82;;;21.90;99.90;;;;;;5115229;27;20284;-74
2022/09/05 01:08:19;;;;;;;9.52;6.18;;;21.90;99.90;;;;;;5063723;28;20214;-73
2022/09/05 01:11:11;;;;;;;10.18;6.57;;;21.90;99.90;;;;;;5090620;28;20690;-74
2022/09/05 01:14:21;;;;;;;8.65;6.20;;;21.90;99.90;;;;;;5124727;27;20182;-72
2022/09/05 01:17:11;;;;;;;8.27;6.78;;;21.90;99.90;;;;;;5090471;28;20728;-74
2022/09/05 01:19:57;;;;;;;7.32;6.57;;;21.90;99.90;;;;;;5087987;28;20284;-73
2022/09/05 01:23:16;;;;;;;8.95;5.78;;;21.90;99.90;;;;;;5082686;28;20212;-74
2022/09/05 01:25:51;;;;;;;9.63;6.50;;;21.90;99.90;;;;;;5073186;28;20235;-74
2022/09/05 01:28:43;;;;;;;12.35;6.40;;;21.90;99.90;;;;;;5103295;28;20217;-73
2022/09/05 01:31:57;;;;;;;9.45;6.57;;;21.90;99.90;;;;;;5089059;28;20526;-74
2022/09/05 01:34:40;;;;;;;7.95;6.00;;;21.90;99.90;;;;;;5069083;28;20194;-74
2022/09/05 01:37:30;;;;;;;9.35;6.47;;;21.90;99.90;;;;;;5089969;28;20182;-73
2022/09/05 01:40:18;;;;;;;8.65;6.43;;;21.90;99.90;;;;;;5089735;28;20254;-73
2022/09/05 01:43:22;;;;;;;8.45;5.97;;;22.00;99.90;;;;;;5103897;28;20238;-73
2022/09/05 01:46:18;;;;;;;8.98;6.82;;;22.00;99.90;;;;;;5085265;28;20236;-73
2022/09/05 01:49:37;;;;;;;7.38;6.28;;;22.00;99.90;;;;;;5083993;28;20290;-74
2022/09/05 01:52:39;;;;;;;8.00;7.20;;;22.00;99.90;;;;;;5070518;28;20189;-74
2022/09/05 01:55:40;;;;;;;11.90;8.00;;;22.00;99.90;;;;;;5085680;28;20844;-74
2022/09/05 01:58:15;;;;;;;11.90;7.00;;;22.10;99.90;;;;;;5085928;28;20244;-73
2022/09/05 02:01:27;;;;;;;9.23;7.72;;;22.10;99.90;;;;;;5070404;28;20266;-74
2022/09/05 02:04:39;;;;;;;8.85;8.05;;;22.10;99.90;;;;;;5119710;27;20178;-74
2022/09/05 02:07:36;;;;;;;9.40;7.95;;;22.10;99.90;;;;;;5123591;27;20811;-73
2022/09/05 02:10:49;;;;;;;10.77;8.10;;;22.10;99.90;;;;;;5075292;28;20587;-74
2022/09/05 02:13:52;;;;;;;12.90;8.38;;;22.10;99.90;;;;;;5099501;28;20198;-74
2022/09/05 02:16:36;;;;;;;9.63;8.65;;;22.10;99.90;;;;;;5088842;28;20178;-73
2022/09/05 02:19:16;;;;;;;13.38;8.57;;;22.10;99.90;;;;;;5105803;28;20224;-73
2022/09/05 02:22:11;;;;;;;11.40;8.20;;;22.10;99.90;;;;;;5123455;27;20210;-74
2022/09/05 02:24:53;;;;;;;12.15;8.40;;;22.10;99.90;;;;;;5088490;28;20186;-73
2022/09/05 02:27:35;;;;;;;11.07;8.60;;;22.10;99.90;;;;;;5090035;28;20171;-74
2022/09/05 02:30:17;;;;;;;9.40;8.40;;;22.10;99.90;;;;;;5088304;28;20201;-74
2022/09/05 02:33:04;;;;;;;12.02;8.65;;;22.10;99.90;;;;;;5069761;28;20241;-73
2022/09/05 02:35:42;;;;;;;12.35;8.07;;;22.20;99.90;;;;;;5089540;28;20180;-74
2022/09/05 02:38:51;;;;;;;10.15;8.82;;;22.20;99.90;;;;;;5085117;28;20193;-74
2022/09/05 02:41:58;;;;;;;9.18;7.43;;;22.20;99.90;;;;;;5088669;28;20648;-74
2022/09/05 02:44:52;;;;;;;11.50;8.85;;;22.30;99.90;;;;;;5071942;28;20200;-74
2022/09/05 02:47:44;;;;;;;11.57;9.40;;;22.20;99.90;;;;;;5104062;27;20187;-74
2022/09/05 02:50:49;;;;;;;10.75;9.65;;;22.20;99.90;;;;;;5062977;28;20202;-73
2022/09/05 02:53:21;;;;;;;14.05;9.30;;;22.30;99.90;;;;;;5088554;28;20213;-74
2022/09/05 02:56:22;;;;;;;9.85;8.85;;;22.20;99.90;;;;;;5071574;28;20273;-73
2022/09/05 02:59:37;;;;;;;9.60;8.43;;;22.20;99.90;;;;;;5088028;28;20215;-74
2022/09/05 03:02:28;;;;;;;8.95;8.02;;;22.10;99.90;;;;;;5101998;28;20178;-74
2022/09/05 03:05:25;;;;;;;10.80;8.38;;;22.10;99.90;;;;;;5090059;28;20896;-74
2022/09/05 03:08:07;;;;;;;9.18;7.97;;;22.10;99.90;;;;;;5087715;28;20189;-74
2022/09/05 03:11:21;;;;;;;12.65;9.02;;;22.10;99.90;;;;;;5088347;28;20220;-74
2022/09/05 03:14:24;;;;;;;12.93;9.35;;;22.10;99.90;;;;;;5105457;28;20186;-73
2022/09/05 03:17:49;;;;;;;9.75;8.38;;;22.20;99.90;;;;;;5088638;28;20240;-74
2022/09/05 03:20:37;;;;;;;14.35;8.90;;;22.20;99.90;;;;;;5076003;28;20710;-74
2022/09/05 03:23:27;;;;;;;9.73;8.60;;;22.20;99.90;;;;;;5088186;28;20193;-74
2022/09/05 03:26:33;;;;;;;10.18;8.05;;;22.20;99.90;;;;;;5088133;28;20197;-74
2022/09/05 03:29:39;;;;;;;11.75;8.30;;;22.20;99.90;;;;;;5088282;28;20621;-74
2022/09/05 03:32:47;;;;;;;12.40;8.68;;;22.20;99.90;;;;;;5105558;28;20184;-74
2022/09/05 03:35:57;;;;;;;10.27;8.75;;;22.20;99.90;;;;;;5102522;28;20282;-74
2022/09/05 03:38:48;;;;;;;10.35;9.35;;;22.20;99.90;;;;;;5081402;28;20181;-74
2022/09/05 03:41:59;;;;;;;13.13;8.68;;;22.20;99.90;;;;;;5086495;28;20266;-74
2022/09/05 03:45:06;;;;;;;11.15;8.98;;;22.20;99.90;;;;;;5090738;28;20174;-74
2022/09/05 03:48:04;;;;;;;9.63;8.23;;;22.30;99.90;;;;;;5093187;28;20174;-74
2022/09/05 03:51:12;;;;;;;10.77;9.07;;;22.20;99.90;;;;;;5105630;28;20190;-74
2022/09/05 03:53:52;;;;;;;12.30;9.00;;;22.20;99.90;;;;;;5072068;28;20175;-74
2022/09/05 03:56:49;;;;;;;10.38;8.27;;;22.20;99.90;;;;;;5090659;28;20189;-73
2022/09/05 03:59:43;;;;;;;11.75;9.10;;;22.20;99.90;;;;;;5093074;28;20212;-73
2022/09/05 04:02:18;;;;;;;10.88;9.00;;;22.20;99.90;;;;;;5090354;28;20663;-73
2022/09/05 04:05:20;;;;;;;10.35;9.15;;;22.20;99.90;;;;;;5088011;28;20239;-73
2022/09/05 04:08:08;;;;;;;11.93;8.50;;;22.30;99.90;;;;;;5080472;28;20193;-74
2022/09/05 04:11:40;;;;;;;10.00;7.95;;;22.30;99.90;;;;;;5115177;27;20193;-73
2022/09/05 04:14:24;;;;;;;12.40;9.25;;;22.30;99.90;;;;;;5089761;28;20189;-73
2022/09/05 04:17:16;;;;;;;12.18;9.60;;;22.30;99.90;;;;;;5073309;28;20270;-74
2022/09/05 04:20:59;;;;;;;16.25;9.85;;;22.30;99.90;;;;;;5086327;28;20198;-73
2022/09/05 04:23:41;;;;;;;12.48;8.90;;;22.40;99.90;;;;;;5034575;28;20744;-74
2022/09/05 04:26:49;;;;;;;14.32;9.90;;;22.40;99.90;;;;;;5086085;28;20194;-73
2022/09/05 04:29:38;;;;;;;14.80;9.10;;;22.40;99.90;;;;;;5092209;28;20186;-73
2022/09/05 04:32:46;;;;;;;10.20;9.05;;;22.40;99.90;;;;;;5108539;28;20560;-73
2022/09/05 04:35:44;;;;;;;10.38;8.90;;;22.40;99.90;;;;;;5091110;28;20193;-73
2022/09/05 04:38:41;;;;;;;10.88;8.55;;;22.50;99.90;;;;;;5090739;28;20517;-73
2022/09/05 04:41:15;;;;;;;10.73;9.10;;;22.60;99.90;;;;;;5106094;28;20194;-73
2022/09/05 04:43:52;;;;;;;12.35;9.35;;;22.60;99.90;;;;;;5125476;27;20182;-73
2022/09/05 04:46:44;;;;;;;9.88;8.85;;;22.60;99.90;;;;;;5086735;28;20228;-73
2022/09/05 04:49:18;;;;;;;10.45;8.60;;;22.70;99.90;;;;;;5070250;28;20190;-73
2022/09/05 04:52:28;;;;;;;12.68;9.80;;;22.70;99.90;;;;;;5080433;28;20205;-73
2022/09/05 04:55:09;;;;;;;10.50;8.05;;;22.70;99.90;;;;;;5087818;28;20182;-73
2022/09/05 04:58:00;;;;;;;12.18;9.85;;;22.80;99.90;;;;;;5092177;28;20224;-74
2022/09/05 05:01:07;;;;;;;10.98;9.48;;;22.90;99.90;;;;;;5087279;28;20245;-73
2022/09/05 05:03:35;;;;;;;10.93;9.35;;;23.10;99.90;;;;;;5070714;28;20852;-73
2022/09/05 05:06:21;;;;;;;10.48;9.02;;;23.20;99.90;;;;;;5070486;28;20183;-73
2022/09/05 05:09:20;;;;;;;11.15;9.23;;;23.20;99.90;;;;;;5069770;28;20729;-73
2022/09/05 05:11:55;;;;;;;11.35;9.18;;;23.30;99.90;;;;;;5072084;28;20182;-73
2022/09/05 05:14:45;;;;;;;10.20;8.90;;;23.40;99.90;;;;;;5084664;28;20269;-74
2022/09/05 05:17:33;;;;;;;11.43;9.57;;;23.50;99.90;;;;;;5089000;28;20559;-73
2022/09/05 05:20:29;;;;;;;11.27;9.30;;;23.50;99.90;;;;;;5123955;27;20261;-73
2022/09/05 05:23:09;;;;;;;10.52;9.13;;;23.50;99.90;;;;;;5089324;28;20187;-73
2022/09/05 05:25:56;;;;;;;12.07;9.63;;;23.60;99.90;;;;;;5091832;28;20170;-73
2022/09/05 05:29:06;;;;;;;16.65;9.80;;;23.70;99.90;;;;;;5090341;28;20589;-74
2022/09/05 05:31:57;;;;;;;10.40;9.27;;;23.80;99.90;;;;;;5087901;28;20585;-73
2022/09/05 05:34:41;;;;;;;14.40;9.38;;;23.80;99.90;;;;;;5091089;28;20251;-74
2022/09/05 05:37:31;;;;;;;10.27;9.15;;;23.90;99.90;;;;;;5090150;28;20174;-73
2022/09/05 05:40:09;;;;;;;11.02;9.25;;;24.00;99.90;;;;;;5085059;28;20206;-73
2022/09/05 05:42:40;;;;;;;9.20;8.20;;;24.10;99.90;;;;;;5089203;28;20222;-73
2022/09/05 05:45:17;;;;;;;9.60;8.57;;;24.10;99.90;;;;;;5070937;28;20627;-73
2022/09/05 05:48:05;;;;;;;9.57;8.52;;;24.10;99.90;;;;;;5073068;28;20213;-74
2022/09/05 05:51:32;;;;;;;12.52;8.90;;;24.20;99.90;;;;;;5072820;28;20281;-73
2022/09/05 05:54:23;;;;;;;12.02;9.18;;;24.20;99.90;;;;;;5085981;28;20201;-74
2022/09/05 05:57:38;;;;;;;15.25;8.50;;;24.50;99.90;;;;;;5088938;28;20916;-74
2022/09/05 06:00:42;;;;;;;10.77;8.32;;;24.60;99.90;;;;;;5102828;28;20214;-73
2022/09/05 06:03:37;;;;;;;10.55;8.27;;;24.80;99.90;;;;;;5043881;28;20559;-73
2022/09/05 06:06:37;;;;;;;12.45;8.73;;;24.80;99.90;;;;;;5089739;28;20215;-73
2022/09/05 06:10:16;;;;;;;10.98;8.88;;;24.90;99.90;;;;;;5089271;28;20692;-73
2022/09/05 06:13:11;;;;;;;12.35;9.00;;;25.20;99.90;;;;;;5067744;28;20171;-73
2022/09/05 06:16:15;;;;;;;11.52;8.57;;;25.10;99.90;;;;;;5088523;28;20194;-74
2022/09/05 06:19:15;;;;;;;9.23;7.97;;;25.10;99.90;;;;;;5066227;28;20586;-73
2022/09/05 06:22:17;;;;;;;8.70;7.80;;;25.10;99.90;;;;;;5083922;28;20227;-73
2022/09/05 06:25:01;;;;;;;10.98;8.07;;;25.10;99.90;;;;;;5089268;28;20650;-73
2022/09/05 06:28:09;;;;;;;12.98;6.90;;;25.10;99.90;;;;;;5100999;28;20265;-73
2022/09/05 06:31:20;;;;;;;15.32;8.38;;;25.20;99.90;;;;;;5037377;28;20187;-73
2022/09/05 06:34:21;;;;;;;11.23;7.88;;;25.30;99.90;;;;;;5075330;28;20186;-73
2022/09/05 06:37:11;;;;;;;11.20;7.13;;;25.40;99.90;;;;;;5076672;28;20181;-73
2022/09/05 06:40:21;;;;;;;13.05;7.57;;;25.50;99.90;;;;;;5054658;28;20254;-73
2022/09/05 06:43:35;;;;;;;11.95;7.38;;;25.60;99.90;;;;;;5085636;28;20643;-73
2022/09/05 06:46:35;;;;;;;10.52;7.07;;;25.70;99.90;;;;;;5045554;28;20194;-73
2022/09/05 06:49:24;;;;;;;13.05;7.03;;;25.70;99.90;;;;;;5088047;28;20209;-73
2022/09/05 06:52:00;;;;;;;9.45;6.80;;;25.80;99.90;;;;;;5097663;28;20186;-73
2022/09/05 06:55:22;;;;;;;10.70;7.38;;;25.80;99.90;;;;;;5085133;28;20387;-73
2022/09/05 06:58:19;;;;;;;10.50;7.78;;;26.00;99.90;;;;;;5079607;28;20655;-73
2022/09/05 07:00:53;;;;;;;14.98;7.95;;;26.00;99.90;;;;;;5075391;28;20221;-73
2022/09/05 07:03:47;;;;;;;12.48;8.63;;;26.20;99.90;;;;;;5086364;28;20246;-73
2022/09/05 07:07:21;;;;;;;10.65;8.18;;;26.40;99.90;;;;;;5086693;28;20185;-73
2022/09/05 07:10:24;;;;;;;12.57;8.88;;;26.70;99.90;;;;;;5081589;28;20737;-73
2022/09/05 07:13:13;;;;;;;13.00;9.32;;;26.80;99.90;;;;;;5079860;28;20186;-73
2022/09/05 07:16:12;;;;;;;17.88;9.55;;;26.80;99.90;;;;;;5073495;28;20190;-73
2022/09/05 07:18:55;;;;;;;17.58;9.73;;;26.90;99.90;;;;;;5077177;28;20716;-71
2022/09/05 07:21:50;;;;;;;14.80;9.88;;;27.10;99.90;;;;;;5112953;27;20186;-72
2022/09/05 07:24:26;;;;;;;14.00;9.95;;;27.10;99.90;;;;;;5090322;28;20181;-72
2022/09/05 07:26:59;;;;;;;11.68;9.30;;;27.10;99.90;;;;;;5095604;28;20185;-72
2022/09/05 07:29:41;;;;;;;14.25;10.38;;;27.20;99.90;;;;;;5108757;28;20702;-71
2022/09/05 07:32:16;;;;;;;13.52;9.95;;;27.30;99.90;;;;;;5083177;28;20636;-71
2022/09/05 07:34:47;;;;;;;16.63;10.65;;;27.50;99.90;;;;;;5116436;28;20181;-71
2022/09/05 07:37:37;;;;;;;13.98;10.02;;;27.50;99.90;;;;;;5083210;28;20227;-72
2022/09/05 07:40:15;;;;;;;15.85;10.35;;;27.60;99.90;;;;;;5108408;27;20210;-71
2022/09/05 07:43:10;;;;;;;14.13;10.02;;;27.60;99.90;;;;;;5072849;28;20213;-71
2022/09/05 07:46:02;;;;;;;11.45;10.07;;;27.70;99.90;;;;;;5080884;28;20190;-71
2022/09/05 07:48:45;;;;;;;12.75;9.27;;;27.80;99.90;;;;;;5078982;28;20193;-71
2022/09/05 07:52:00;;;;;;;17.52;10.77;;;27.80;99.90;;;;;;5085412;28;20191;-71
2022/09/05 07:54:34;;;;;;;15.02;10.25;;;28.00;99.90;;;;;;5082004;28;20277;-71
2022/09/05 07:57:08;;;;;;;16.25;9.52;;;28.00;99.90;;;;;;5077547;28;20574;-71
2022/09/05 07:59:39;;;;;;;14.18;10.30;;;28.00;99.90;;;;;;5079717;28;20210;-71
2022/09/05 08:02:12;;;;;;;14.07;10.02;;;28.00;99.90;;;;;;5077393;28;20194;-71
2022/09/05 08:04:41;;;;;;;13.45;9.95;;;28.00;99.90;;;;;;5071171;28;20182;-70
2022/09/05 08:07:17;;;;;;;13.43;9.88;;;28.10;99.90;;;;;;5083818;28;20220;-71
2022/09/05 08:09:55;;;;;;;13.35;9.60;;;28.20;99.90;;;;;;5098786;28;20587;-71
2022/09/05 08:12:33;;;;;;;11.02;9.20;;;28.20;99.90;;;;;;5083484;28;20200;-71
2022/09/05 08:15:23;;;;;;;14.70;9.70;;;28.20;99.90;;;;;;5118086;28;20247;-71
2022/09/05 08:18:17;;;;;;;13.25;9.10;;;28.40;99.90;;;;;;5102949;28;20202;-70
2022/09/05 08:21:02;;;;;;;15.48;9.30;;;28.50;99.90;;;;;;5100114;28;20217;-70
2022/09/05 08:23:47;;;;;;;12.43;9.15;;;28.60;99.90;;;;;;5091794;28;20509;-71
2022/09/05 08:26:26;;;;;;;17.52;9.20;;;28.60;99.90;;;;;;5088449;28;20638;-70
2022/09/05 08:28:58;;;;;;;13.20;9.00;;;28.70;99.90;;;;;;5080730;28;20186;-71
2022/09/05 08:31:39;;;;;;;16.48;8.80;;;28.80;99.90;;;;;;5082754;28;20222;-71
2022/09/05 08:34:24;;;;;;;13.77;8.77;;;28.80;99.90;;;;;;5090000;28;20269;-71
2022/09/05 08:36:55;;;;;;;13.13;8.50;;;28.90;99.90;;;;;;5101309;28;20178;-71
2022/09/05 08:39:28;;;;;;;11.32;8.50;;;29.00;99.90;;;;;;5103799;27;20221;-73
2022/09/05 08:42:29;;;;;;;15.25;8.77;;;29.10;99.90;;;;;;5074039;28;20183;-74
2022/09/05 08:45:07;;;;;;;12.68;9.73;;;29.20;99.90;;;;;;5085357;28;20273;-71
2022/09/05 08:48:02;;;;;;;14.13;9.07;;;29.20;99.90;;;;;;5090711;28;20189;-73
2022/09/05 08:50:46;;;;;;;17.95;9.65;;;29.30;99.90;;;;;;5091133;28;20931;-71
2022/09/05 08:54:16;;;;;;;19.35;9.27;;;29.50;99.90;;;;;;5122007;27;20243;-73
2022/09/05 08:57:20;;;;;;;20.75;10.30;;;29.50;99.90;;;;;;5075389;28;20206;-71
2022/09/05 09:00:08;;;;;;;17.27;9.65;;;29.50;99.90;;;;;;5079374;28;20247;-73
2022/09/05 09:03:22;;;;;;;16.60;8.95;;;29.60;99.90;;;;;;5079878;28;20218;-73
2022/09/05 09:05:58;;;;;;;22.30;9.60;;;29.80;99.90;;;;;;5120302;27;20182;-72
2022/09/05 09:08:56;;;;;;;15.15;9.65;;;30.00;99.90;;;;;;5084076;28;20185;-72
2022/09/05 09:11:40;;;;;;;14.85;10.57;;;30.00;99.90;;;;;;5089595;28;20186;-71
2022/09/05 09:14:37;;;;;;;15.52;9.70;;;30.10;99.90;;;;;;5084913;28;20213;-71
2022/09/05 09:17:48;;;;;;;16.23;10.38;;;30.10;99.90;;;;;;5080508;28;20297;-72
2022/09/05 09:20:48;;;;;;;16.42;10.27;;;30.20;99.90;;;;;;5090428;28;20205;-72
2022/09/05 09:23:33;;;;;;;15.60;10.23;;;30.40;99.90;;;;;;5088174;28;20814;-71
2022/09/05 09:26:31;;;;;;;13.25;9.82;;;30.50;99.90;;;;;;5093186;27;20178;-72
2022/09/05 09:29:07;;;;;;;19.92;10.25;;;30.50;99.90;;;;;;5090304;28;20193;-72
2022/09/05 09:31:43;;;;;;;18.48;9.93;;;30.60;99.90;;;;;;5090096;28;20178;-71
2022/09/05 09:34:28;;;;;;;12.07;9.93;;;30.60;99.90;;;;;;5086174;28;20206;-70
2022/09/05 09:37:21;;;;;;;13.20;9.77;;;30.70;99.90;;;;;;5102132;28;20258;-71
2022/09/05 09:40:25;;;;;;;15.73;9.80;;;30.70;99.90;;;;;;5120020;27;20242;-71
2022/09/05 09:43:26;;;;;;;20.08;10.65;;;30.90;99.90;;;;;;5093698;28;20180;-72
2022/09/05 09:46:29;;;;;;;16.75;10.07;;;31.20;99.90;;;;;;5082704;28;20186;-71
2022/09/05 09:49:19;;;;;;;16.33;10.20;;;31.20;99.90;;;;;;5089744;28;20174;-72
2022/09/05 09:52:26;;;;;;;16.15;10.30;;;31.60;99.90;;;;;;5106640;28;20239;-72
2022/09/05 09:55:24;;;;;;;18.90;9.48;;;31.70;99.90;;;;;;5106623;28;20174;-71
2022/09/05 09:58:28;;;;;;;13.27;10.18;;;32.10;99.90;;;;;;5089581;28;20182;-71
2022/09/05 10:01:41;;;;;;;18.38;10.40;;;32.50;99.90;;;;;;5089445;28;20568;-72
2022/09/05 10:04:41;;;;;;;21.98;9.55;;;32.70;99.90;;;;;;5097095;27;20242;-71
2022/09/05 10:07:29;;;;;;;15.20;9.43;;;32.90;99.90;;;;;;5089525;28;20170;-72
2022/09/05 10:10:20;;;;;;;17.58;9.68;;;32.80;99.90;;;;;;5106295;28;20595;-72
2022/09/05 10:13:02;;;;;;;15.00;10.05;;;32.80;99.90;;;;;;5089299;28;20190;-72
2022/09/05 10:15:44;;;;;;;15.07;9.48;;;32.90;99.90;;;;;;5094882;28;20770;-73
2022/09/05 10:18:30;;;;;;;16.25;9.90;;;33.20;99.90;;;;;;5081478;28;20218;-72
2022/09/05 10:21:16;;;;;;;16.48;9.20;;;33.00;99.90;;;;;;5068696;28;20218;-72
2022/09/05 10:24:30;;;;;;;17.60;9.55;;;33.10;99.90;;;;;;5069057;28;20179;-72
2022/09/05 10:27:21;;;;;;;19.02;9.35;;;33.10;99.90;;;;;;5056357;28;21010;-72
2022/09/05 10:30:09;;;;;;;14.35;9.75;;;32.90;99.90;;;;;;5068974;28;20175;-72
2022/09/05 10:32:46;;;;;;;15.73;10.27;;;32.70;99.90;;;;;;5102805;28;20656;-72
2022/09/05 10:35:35;;;;;;;15.57;9.85;;;32.50;99.90;;;;;;5102678;28;20197;-72
2022/09/05 10:38:24;;;;;;;15.07;9.00;;;32.60;99.90;;;;;;5105701;28;20647;-72
2022/09/05 10:40:50;;;;;;;18.10;10.20;;;32.40;99.90;;;;;;5088474;28;20664;-72
2022/09/05 10:43:29;;;;;;;17.90;9.77;;;32.30;99.90;;;;;;5072051;28;20174;-72
2022/09/05 10:46:32;;;;;;;16.92;9.68;;;32.40;99.90;;;;;;5106158;28;20575;-72
2022/09/05 10:49:08;;;;;;;19.33;10.05;;;32.40;99.90;;;;;;5084892;28;20185;-73
2022/09/05 10:52:05;;;;;;;21.33;10.90;;;32.30;99.90;;;;;;5094897;28;20210;-72
2022/09/05 10:55:20;;;;;;;17.10;10.00;;;32.40;99.90;;;;;;5066853;28;20190;-72
2022/09/05 10:58:42;;;;;;;14.07;10.25;;;32.40;99.90;;;;;;5083210;28;20202;-72
2022/09/05 11:01:33;;;;;;;18.95;10.52;;;32.40;99.90;;;;;;5040007;28;20221;-72
2022/09/05 11:04:44;;;;;;;19.42;9.73;;;32.40;99.90;;;;;;5085081;28;20179;-72
2022/09/05 11:07:46;;;;;;;15.50;10.07;;;32.40;99.90;;;;;;5067876;28;20293;-72
2022/09/05 11:10:30;;;;;;;19.67;10.27;;;32.40;99.90;;;;;;5102202;28;20179;-72
2022/09/05 11:13:16;;;;;;;14.88;9.70;;;32.10;99.90;;;;;;5104064;28;20186;-72
2022/09/05 11:16:01;;;;;;;20.45;10.60;;;32.10;99.90;;;;;;5088270;28;20177;-71
2022/09/05 11:18:48;;;;;;;17.20;9.88;;;32.10;99.90;;;;;;5087616;28;20190;-72
2022/09/05 11:21:55;;;;;;;18.95;10.45;;;32.00;99.90;;;;;;5088123;28;20210;-72
2022/09/05 11:24:57;;;;;;;15.32;9.93;;;31.90;99.90;;;;;;5076009;28;20187;-71
2022/09/05 11:27:43;;;;;;;14.68;9.98;;;31.90;99.90;;;;;;5067907;28;20286;-72
2022/09/05 11:30:20;;;;;;;16.23;10.10;;;31.90;99.90;;;;;;5084702;28;20187;-73
2022/09/05 11:33:26;;;;;;;19.48;10.02;;;31.90;99.90;;;;;;5067979;28;20171;-72
2022/09/05 11:36:12;;;;;;;13.40;9.55;;;31.90;99.90;;;;;;5076823;28;20194;-73
2022/09/05 11:38:52;;;;;;;14.50;9.40;;;31.70;99.90;;;;;;5098686;28;20182;-72
2022/09/05 11:42:10;;;;;;;17.38;10.55;;;31.90;99.90;;;;;;5087964;28;20229;-72
2022/09/05 11:45:07;;;;;;;15.23;10.23;;;31.90;99.90;;;;;;5104849;28;20178;-73
2022/09/05 11:47:58;;;;;;;14.88;8.93;;;31.90;99.90;;;;;;5089304;28;20257;-72
2022/09/05 11:50:59;;;;;;;17.23;10.10;;;31.80;99.90;;;;;;5100160;28;20553;-72
2022/09/05 11:53:56;;;;;;;16.77;9.70;;;32.10;99.90;;;;;;5016593;28;20595;-73
2022/09/05 11:57:30;;;;;;;11.77;8.95;;;32.10;99.90;;;;;;5084175;28;20206;-72
2022/09/05 12:00:08;;;;;;;22.15;9.82;;;32.00;99.90;;;;;;5057596;28;20336;-73
2022/09/05 12:03:37;;;;;;;11.85;9.02;;;31.90;99.90;;;;;;5050949;28;20269;-73
2022/09/05 12:06:46;;;;;;;19.95;10.18;;;31.80;99.90;;;;;;5085979;28;20218;-72
2022/09/05 12:09:49;;;;;;;12.50;9.05;;;31.80;99.90;;;;;;5065533;28;20191;-72
2022/09/05 12:12:40;;;;;;;14.90;9.10;;;32.00;99.90;;;;;;5090376;28;20178;-72
2022/09/05 12:15:33;;;;;;;13.55;8.57;;;31.90;99.90;;;;;;5058366;28;20203;-72
2022/09/05 12:18:21;;;;;;;14.50;8.40;;;31.90;99.90;;;;;;5095313;28;20326;-72
2022/09/05 12:21:01;;;;;;;13.55;8.73;;;32.10;99.90;;;;;;5112609;27;20219;-72
2022/09/05 12:24:06;;;;;;;12.30;9.15;;;32.10;99.90;;;;;;5078347;28;20237;-72
2022/09/05 12:26:53;;;;;;;11.02;7.75;;;32.10;99.90;;;;;;5082769;28;20211;-72
2022/09/05 12:29:25;;;;;;;13.77;8.70;;;32.00;99.90;;;;;;5079633;28;20200;-73
2022/09/05 12:31:57;;;;;;;12.65;8.30;;;32.10;99.90;;;;;;5113100;27;20280;-73
2022/09/05 12:34:49;;;;;;;17.10;7.75;;;32.10;99.90;;;;;;5084166;28;20182;-72
2022/09/05 12:37:51;;;;;;;18.50;7.97;;;32.10;99.90;;;;;;5064111;28;20209;-72
2022/09/05 12:40:32;;;;;;;11.77;7.93;;;32.10;99.90;;;;;;5067514;28;20226;-72
2022/09/05 12:43:07;;;;;;;15.02;8.00;;;32.20;99.90;;;;;;5087257;28;20497;-73
2022/09/05 12:46:17;;;;;;;10.55;7.85;;;32.20;99.90;;;;;;5085077;28;20266;-73
2022/09/05 12:49:01;;;;;;;13.27;8.05;;;32.20;99.90;;;;;;5087940;28;20784;-73
2022/09/05 12:51:35;;;;;;;15.38;8.25;;;32.20;99.90;;;;;;5080172;28;20190;-73
2022/09/05 12:54:25;;;;;;;16.27;8.05;;;32.20;99.90;;;;;;5105034;27;20190;-71
2022/09/05 12:57:28;;;;;;;13.25;8.48;;;32.20;99.90;;;;;;5070323;28;20271;-72
2022/09/05 13:00:09;;;;;;;13.55;7.40;;;32.00;99.90;;;;;;5070273;28;20211;-72
2022/09/05 13:02:42;;;;;;;12.68;7.45;;;32.00;99.90;;;;;;5069416;28;20324;-73
2022/09/05 13:05:18;;;;;;;8.90;7.78;;;32.00;99.90;;;;;;5066860;28;20194;-73
2022/09/05 13:07:57;;;;;;;16.35;7.97;;;32.10;99.90;;;;;;5076771;28;20195;-73
2022/09/05 13:10:36;;;;;;;11.48;7.85;;;32.00;99.90;;;;;;5070113;28;20189;-73
2022/09/05 13:13:13;;;;;;;15.73;8.32;;;32.00;99.90;;;;;;5082318;28;20624;-73
2022/09/05 13:15:49;;;;;;;10.02;8.43;;;31.90;99.90;;;;;;5056830;28;20222;-73
2022/09/05 13:18:41;;;;;;;10.48;7.93;;;31.90;99.90;;;;;;5080874;28;20313;-75
2022/09/05 13:21:29;;;;;;;12.48;7.20;;;31.80;99.90;;;;;;5076412;28;20219;-73
2022/09/05 13:24:26;;;;;;;12.38;7.82;;;31.70;99.90;;;;;;5101811;28;20644;-74
2022/09/05 13:27:07;;;;;;;13.70;7.65;;;31.70;99.90;;;;;;5094697;28;20187;-72
2022/09/05 13:29:52;;;;;;;11.35;7.63;;;31.70;99.90;;;;;;5080865;28;20239;-73
2022/09/05 13:32:29;;;;;;;12.00;7.90;;;31.60;99.90;;;;;;5089609;28;20186;-72
2022/09/05 13:35:31;;;;;;;12.80;7.88;;;31.70;99.90;;;;;;5106496;28;20204;-72
2022/09/05 13:38:42;;;;;;;12.63;8.25;;;31.60;99.90;;;;;;5079714;28;20210;-73
2022/09/05 13:41:26;;;;;;;11.30;8.15;;;31.50;99.90;;;;;;5071744;28;20292;-73
2022/09/05 13:43:55;;;;;;;10.07;7.35;;;31.50;99.90;;;;;;5121454;27;20582;-72
2022/09/05 13:47:26;;;;;;;18.83;8.40;;;31.50;99.90;;;;;;5069592;28;20277;-73
2022/09/05 13:50:25;;;;;;;10.13;8.25;;;31.50;99.90;;;;;;5045257;28;20202;-73
2022/09/05 13:53:33;;;;;;;15.57;8.18;;;31.40;99.90;;;;;;5078764;28;20237;-73
2022/09/05 13:56:29;;;;;;;12.55;7.70;;;31.40;99.90;;;;;;5102633;28;20181;-72
2022/09/05 13:59:09;;;;;;;12.43;7.75;;;31.30;99.90;;;;;;5068567;28;20589;-73
2022/09/05 14:02:05;;;;;;;9.85;7.25;;;31.30;99.90;;;;;;5091262;28;20186;-73
2022/09/05 14:05:06;;;;;;;9.82;7.28;;;31.30;99.90;;;;;;5090709;28;20243;-73
2022/09/05 14:08:22;;;;;;;15.35;8.20;;;31.30;99.90;;;;;;5078449;28;20219;-72
2022/09/05 14:11:19;;;;;;;17.05;8.18;;;31.20;99.90;;;;;;5069377;28;21211;-73
2022/09/05 14:14:09;;;;;;;16.00;8.13;;;31.20;99.90;;;;;;5087913;28;20638;-73
2022/09/05 14:17:46;;;;;;;15.45;8.43;;;31.10;99.90;;;;;;5067711;28;20186;-73
2022/09/05 14:23:08;;;;;;;12.18;7.72;;;31.00;99.90;;;;;;5114866;27;20186;-72
2022/09/05 14:26:01;;;;;;;17.52;8.75;;;30.90;99.90;;;;;;5099376;28;20178;-73
2022/09/05 14:28:45;;;;;;;15.80;8.13;;;30.90;99.90;;;;;;5084291;28;20219;-73
2022/09/05 14:31:19;;;;;;;13.02;8.55;;;30.90;99.90;;;;;;5092109;28;20186;-73
2022/09/05 14:34:30;;;;;;;10.52;8.30;;;30.80;99.90;;;;;;5076923;28;20271;-73
2022/09/05 14:37:33;;;;;;;14.88;8.80;;;30.80;99.90;;;;;;5084417;28;20277;-73
2022/09/05 14:40:11;;;;;;;17.92;8.98;;;30.70;99.90;;;;;;5082160;28;20210;-73
2022/09/05 14:43:15;;;;;;;13.32;9.13;;;30.70;99.90;;;;;;5064144;28;20178;-73
2022/09/05 14:46:12;;;;;;;12.13;9.45;;;30.60;99.90;;;;;;5030635;28;20738;-73
2022/09/05 14:49:15;;;;;;;29.48;10.23;;;30.50;99.90;;;;;;5085546;28;20194;-72
2022/09/05 14:51:46;;;;;;;16.67;8.25;;;30.40;99.90;;;;;;5079318;28;20643;-73
2022/09/05 14:54:35;;;;;;;11.70;8.25;;;30.40;99.90;;;;;;5080954;28;20543;-73